Hlavní strana
METAR-TAF:

METAR-TAF

Letiště :

Zadar, Chorvatsko

zeměpisná šířka: 44-06N, zeměpisná délka: 015-21E, výška: 82 m

Aktuální stav počasí

Zpráva byla vytvořena před 21 minutami, v 07:30 UTC
vítr z různých směrů 2 kt
Teplota 28°C
Vlhkost vzduchu 48%
Tlak 1017 hPa
Viditelnost 10 km a více
Žádná oblačnost pod 1500 m, nevyskytují se cumulonimby.

METAR: LDZD 190730Z VRB02KT CAVOK 28/16 Q1017 NOSIG

Čas: 09:51 (07:51 UTC)

Předpověď počasí

Zpráva byla vytvořena před 2 hodinami a 26 minutami, v 05:25 UTC
Předpověď platná od 19 v 06 UTC do 20 v 06 UTC
vítr z různých směrů 2 kt
Viditelnost 10 km a více
Žádná oblačnost pod 1500 m, nevyskytují se cumulonimby.
Dočasný
od 19 v 10 UTC do 19 v 17 UTC
Jihozápadní vítr 7 kt

TAF: LDZD 190525Z 1906/2006 VRB02KT CAVOK TX34/1914Z TN18/2003Z TEMPO 1910/1917 23007KT

Stav a předpovědi počasí z více než 4 000 letišť (zprávy METAR a TAF).

Červené a žluté tečky na mapě představují dostupné meteorologické stanice.

Když kurzor umístíte na tečku, zobrazí se název stanice.

Pak kliknutím zobrazíte stav a předpověď počasí.

Chcete-li změnit mapu, kliknutím na zelené tlačítko se znaménkem +mapu přiblížíte, kliknutím na zelené tlačítko se znaménkem – mapu oddálíte a kliknutím na zelené šipky přejdete na sousední mapy.


METAR-TAF: